createdAt,value
2022-09-01T00:00:42.073Z,3.87
2022-09-01T00:03:11.033Z,2.13
2022-09-01T00:05:38.994Z,2.33
2022-09-01T00:08:08.381Z,5.87
2022-09-01T00:10:36.402Z,2.43
2022-09-01T00:13:07.030Z,4.73
2022-09-01T00:15:35.428Z,1.70
2022-09-01T00:18:03.642Z,2.00
2022-09-01T00:20:31.902Z,2.77
2022-09-01T00:23:00.594Z,3.10
2022-09-01T00:25:30.386Z,2.27
2022-09-01T00:28:00.382Z,2.90
2022-09-01T00:30:28.710Z,2.83
2022-09-01T00:32:56.710Z,1.80
2022-09-01T00:35:24.874Z,2.70
2022-09-01T00:37:52.909Z,2.50
2022-09-01T00:40:21.163Z,2.10
2022-09-01T00:42:50.513Z,3.37
2022-09-01T00:45:19.335Z,2.17
2022-09-01T00:47:50.292Z,2.33
2022-09-01T00:50:20.089Z,1.80
2022-09-01T00:52:52.625Z,2.60
2022-09-01T00:55:27.909Z,1.63
2022-09-01T00:57:57.841Z,2.17
2022-09-01T01:00:29.173Z,1.83
2022-09-01T01:02:57.967Z,1.90
2022-09-01T01:05:33.126Z,2.53
2022-09-01T01:08:02.861Z,2.27
2022-09-01T01:10:35.886Z,2.10
2022-09-01T01:13:09.581Z,2.03
2022-09-01T01:15:37.988Z,1.90
2022-09-01T01:18:06.088Z,3.63
2022-09-01T01:20:52.636Z,2.57
2022-09-01T01:23:31.046Z,1.90
2022-09-01T01:26:01.768Z,2.40
2022-09-01T01:28:32.101Z,4.43
2022-09-01T01:31:02.672Z,3.70
2022-09-01T01:33:33.808Z,3.40
2022-09-01T01:36:01.887Z,3.60
2022-09-01T01:38:31.237Z,2.63
2022-09-01T01:41:01.444Z,2.07
2022-09-01T01:43:29.933Z,2.70
2022-09-01T01:46:02.550Z,2.60
2022-09-01T01:48:34.674Z,2.40
2022-09-01T01:51:04.548Z,3.80
2022-09-01T01:53:33.659Z,2.17
2022-09-01T01:56:03.024Z,2.00
2022-09-01T01:58:31.403Z,1.80
2022-09-01T02:00:59.604Z,3.10
2022-09-01T02:03:38.305Z,3.47
2022-09-01T02:06:09.729Z,2.60
2022-09-01T02:08:38.768Z,2.50
2022-09-01T02:11:09.255Z,3.23
2022-09-01T02:13:37.188Z,2.00
2022-09-01T02:16:12.094Z,2.50
2022-09-01T02:18:42.783Z,3.00
2022-09-01T02:21:17.789Z,2.27
2022-09-01T02:23:48.843Z,2.23
2022-09-01T02:26:19.228Z,2.10
2022-09-01T02:28:55.737Z,2.50
2022-09-01T02:31:24.667Z,2.03
2022-09-01T02:33:54.372Z,5.53
2022-09-01T02:36:25.246Z,2.47
2022-09-01T02:38:56.389Z,3.70
2022-09-01T02:41:29.202Z,2.27
2022-09-01T02:44:02.217Z,3.87
2022-09-01T02:46:30.656Z,2.43
2022-09-01T02:49:00.691Z,3.37
2022-09-01T02:51:29.274Z,2.77
2022-09-01T02:53:57.934Z,4.80
2022-09-01T02:56:27.756Z,2.20
2022-09-01T02:58:56.455Z,2.43
2022-09-01T03:01:27.160Z,3.20
2022-09-01T03:03:57.883Z,3.90
2022-09-01T03:06:28.161Z,2.30
2022-09-01T03:08:59.078Z,2.30
2022-09-01T03:11:31.747Z,2.10
2022-09-01T03:14:00.002Z,4.10
2022-09-01T03:16:30.385Z,2.30
2022-09-01T03:18:59.270Z,3.57
2022-09-01T03:21:27.922Z,2.30
2022-09-01T03:23:58.144Z,2.17
2022-09-01T03:26:26.344Z,2.20
2022-09-01T03:28:55.774Z,2.00
2022-09-01T03:31:27.452Z,2.60
2022-09-01T03:34:00.601Z,3.47
2022-09-01T03:36:30.068Z,2.07
2022-09-01T03:38:58.702Z,2.30
2022-09-01T03:41:29.502Z,2.00
2022-09-01T03:44:00.138Z,2.20
2022-09-01T03:46:36.241Z,2.20
2022-09-01T03:49:07.285Z,4.00
2022-09-01T03:51:39.090Z,2.57
2022-09-01T03:54:07.631Z,2.87
2022-09-01T03:56:35.693Z,3.20
2022-09-01T03:59:05.109Z,2.97
2022-09-01T04:01:43.752Z,3.47
2022-09-01T04:04:13.862Z,3.37
2022-09-01T04:06:42.541Z,2.90
2022-09-01T04:09:10.933Z,6.27
2022-09-01T04:11:45.033Z,3.60
2022-09-01T04:14:15.827Z,4.30
2022-09-01T04:17:03.204Z,3.60
2022-09-01T04:19:36.726Z,3.47
2022-09-01T04:22:05.653Z,4.20
2022-09-01T04:24:34.862Z,4.90
2022-09-01T04:27:04.585Z,3.40
2022-09-01T04:29:34.057Z,4.00
2022-09-01T04:32:04.109Z,3.60
2022-09-01T04:34:37.327Z,3.13
2022-09-01T04:37:09.752Z,3.33
2022-09-01T04:39:39.282Z,4.20
2022-09-01T04:42:09.308Z,3.40
2022-09-01T04:44:40.289Z,6.43
2022-09-01T04:47:10.962Z,5.33
2022-09-01T04:49:39.158Z,3.10
2022-09-01T04:52:07.171Z,3.10
2022-09-01T04:54:37.440Z,3.63
2022-09-01T04:57:07.070Z,3.57
2022-09-01T04:59:35.917Z,4.33
2022-09-01T05:02:07.824Z,3.80
2022-09-01T05:04:36.024Z,3.10
2022-09-01T05:07:06.304Z,4.33
2022-09-01T05:09:36.958Z,3.03
2022-09-01T05:12:12.793Z,3.20
2022-09-01T05:14:47.199Z,3.07
2022-09-01T05:17:17.288Z,3.20
2022-09-01T05:19:48.579Z,3.10
2022-09-01T05:22:22.093Z,5.77
2022-09-01T05:24:54.911Z,6.80
2022-09-01T05:27:23.924Z,3.60
2022-09-01T05:29:54.167Z,3.00
2022-09-01T05:32:26.192Z,5.10
2022-09-01T05:34:54.252Z,2.97
2022-09-01T05:37:22.249Z,2.97
2022-09-01T05:39:50.387Z,4.27
2022-09-01T05:42:18.411Z,3.93
2022-09-01T05:44:48.000Z,5.20
2022-09-01T05:47:21.879Z,2.93
2022-09-01T05:49:53.564Z,2.73
2022-09-01T05:52:26.256Z,2.53
2022-09-01T05:54:55.585Z,2.63
2022-09-01T05:57:34.453Z,2.63
2022-09-01T06:00:10.891Z,2.60
2022-09-01T06:02:40.108Z,2.50
2022-09-01T06:05:11.058Z,2.37
2022-09-01T06:07:40.880Z,4.00
2022-09-01T06:10:09.817Z,3.23
2022-09-01T06:12:37.755Z,2.37
2022-09-01T06:15:15.745Z,2.30
2022-09-01T06:17:44.722Z,5.70
2022-09-01T06:20:14.199Z,2.43
2022-09-01T06:22:42.322Z,2.90
2022-09-01T06:25:11.216Z,1.73
2022-09-01T06:27:41.067Z,2.33
2022-09-01T06:30:15.066Z,1.80
2022-09-01T06:32:44.801Z,1.60
2022-09-01T06:35:15.796Z,1.70
2022-09-01T06:37:44.450Z,1.53
2022-09-01T06:40:17.760Z,6.00
2022-09-01T06:42:47.276Z,1.50
2022-09-01T06:45:17.631Z,1.33
2022-09-01T06:47:47.263Z,1.30
2022-09-01T06:55:59.451Z,2.07
2022-09-01T06:58:27.663Z,1.10
2022-09-01T07:00:55.679Z,1.63
2022-09-01T07:03:25.037Z,1.17
2022-09-01T07:06:02.482Z,2.70
2022-09-01T07:08:31.791Z,1.17
2022-09-01T07:16:51.778Z,2.47
2022-09-01T07:19:21.382Z,1.00
2022-09-01T07:22:07.002Z,3.33
2022-09-01T07:24:35.847Z,1.90
2022-09-01T07:27:11.041Z,0.83
2022-09-01T07:29:39.598Z,1.20
2022-09-01T07:35:00.157Z,0.80
2022-09-01T07:43:20.668Z,1.47
2022-09-01T07:46:36.678Z,1.00
2022-09-01T07:49:02.462Z,1.63
2022-09-01T07:51:36.376Z,1.40
2022-09-01T07:54:07.203Z,0.90
2022-09-01T07:56:39.950Z,0.77
2022-09-01T07:59:09.566Z,0.90
2022-09-01T08:01:43.911Z,1.73
2022-09-01T08:04:12.083Z,4.53
2022-09-01T08:06:40.831Z,1.00
2022-09-01T08:09:11.854Z,1.00
2022-09-01T08:12:08.555Z,0.60
2022-09-01T08:14:36.601Z,1.03
2022-09-01T08:19:54.678Z,0.53
2022-09-01T08:22:25.230Z,0.93
2022-09-01T08:24:55.420Z,0.50
2022-09-01T08:27:23.359Z,0.50
2022-09-01T08:29:51.313Z,0.83
2022-09-01T08:32:20.604Z,0.87
2022-09-01T08:34:48.513Z,0.60
2022-09-01T08:37:16.533Z,0.73
2022-09-01T08:39:46.712Z,1.20
2022-09-01T08:42:24.934Z,0.70
2022-09-01T08:45:04.474Z,0.70
2022-09-01T08:47:49.236Z,2.20
2022-09-01T08:50:21.673Z,0.70
2022-09-01T08:52:56.718Z,1.17
2022-09-01T08:55:32.449Z,0.60
2022-09-01T08:58:05.726Z,0.70
2022-09-01T09:00:42.564Z,0.57
2022-09-01T09:03:23.209Z,0.47
2022-09-01T09:06:04.254Z,0.70
2022-09-01T09:08:52.888Z,2.10
2022-09-01T09:11:52.792Z,0.80
2022-09-01T09:14:34.900Z,6.17
2022-09-01T09:17:04.333Z,1.27
2022-09-01T09:19:35.129Z,0.50
2022-09-01T09:22:06.541Z,1.80
2022-09-01T09:24:48.420Z,0.60
2022-09-01T09:27:21.904Z,2.03
2022-09-01T09:29:53.585Z,0.60
2022-09-01T09:32:28.094Z,0.67
2022-09-01T09:35:24.721Z,0.40
2022-09-01T09:37:53.433Z,0.40
2022-09-01T09:40:25.231Z,0.73
2022-09-01T09:43:08.253Z,0.87
2022-09-01T09:45:42.049Z,0.53
2022-09-01T09:48:27.260Z,1.10
2022-09-01T09:50:55.389Z,0.80
2022-09-01T09:53:29.082Z,0.60
2022-09-01T09:56:00.913Z,2.23
2022-09-01T09:58:36.271Z,0.70
2022-09-01T10:01:11.237Z,0.70
2022-09-01T10:03:43.122Z,0.70
2022-09-01T10:06:17.707Z,0.60
2022-09-01T10:08:48.097Z,1.63
2022-09-01T10:11:35.900Z,0.67
2022-09-01T10:14:07.508Z,0.93
2022-09-01T10:16:42.500Z,2.77
2022-09-01T10:19:16.302Z,1.70
2022-09-01T10:21:46.472Z,0.90
2022-09-01T10:24:25.892Z,0.40
2022-09-01T10:26:58.105Z,0.70
2022-09-01T10:29:34.776Z,2.10
2022-09-01T10:32:31.293Z,1.07
2022-09-01T10:34:59.818Z,0.77
2022-09-01T10:37:28.153Z,2.07
2022-09-01T10:40:25.598Z,0.63
2022-09-01T10:43:05.604Z,1.73
2022-09-01T10:45:36.591Z,0.40
2022-09-01T10:48:31.164Z,0.80
2022-09-01T10:51:38.846Z,1.17
2022-09-01T10:54:07.782Z,0.50
2022-09-01T10:56:43.797Z,1.70
2022-09-01T10:59:37.208Z,0.70
2022-09-01T11:02:34.673Z,0.40
2022-09-01T11:05:17.541Z,0.67
2022-09-01T11:08:09.154Z,2.05
2022-09-01T11:10:55.800Z,2.00
2022-09-01T11:13:35.739Z,0.60
2022-09-01T11:16:47.234Z,2.53
2022-09-01T11:19:41.216Z,0.73
2022-09-01T11:22:22.364Z,3.20
2022-09-01T11:25:00.256Z,1.10
2022-09-01T11:27:59.887Z,1.07
2022-09-01T11:30:37.508Z,0.40
2022-09-01T11:33:18.990Z,1.25
2022-09-01T11:35:47.998Z,0.63
2022-09-01T11:38:20.679Z,2.55
2022-09-01T11:40:56.613Z,4.57
2022-09-01T11:43:26.195Z,1.77
2022-09-01T11:46:07.032Z,0.50
2022-09-01T11:48:36.029Z,1.10
2022-09-01T11:51:05.969Z,0.70
2022-09-01T11:53:35.366Z,1.20
2022-09-01T11:56:15.965Z,0.40
2022-09-01T11:58:44.085Z,0.70
2022-09-01T12:01:20.697Z,1.02
2022-09-01T12:03:51.207Z,0.57
2022-09-01T12:06:23.829Z,0.47
2022-09-01T12:08:59.093Z,1.13
2022-09-01T12:11:31.430Z,0.30
2022-09-01T12:14:02.460Z,0.47
2022-09-01T12:16:36.799Z,0.40
2022-09-01T12:19:07.038Z,0.80
2022-09-01T12:21:38.336Z,0.47
2022-09-01T12:24:17.529Z,0.38
2022-09-01T12:26:46.461Z,0.65
2022-09-01T12:29:16.360Z,0.50
2022-09-01T12:31:46.069Z,0.90
2022-09-01T12:34:36.905Z,1.15
2022-09-01T12:37:08.496Z,0.40
2022-09-01T12:39:39.892Z,0.55
2022-09-01T12:42:11.832Z,0.52
2022-09-01T12:44:50.610Z,0.80
2022-09-01T12:47:50.872Z,0.30
2022-09-01T12:50:46.409Z,0.40
2022-09-01T12:53:21.036Z,0.98
2022-09-01T12:56:01.452Z,1.30
2022-09-01T12:58:31.907Z,0.45
2022-09-01T13:01:03.195Z,0.50
2022-09-01T13:03:32.187Z,0.40
2022-09-01T13:06:03.811Z,0.73
2022-09-01T13:08:33.846Z,0.30
2022-09-01T13:11:07.387Z,0.43
2022-09-01T13:13:36.215Z,1.02
2022-09-01T13:16:08.537Z,0.47
2022-09-01T13:21:24.812Z,1.52
2022-09-01T13:23:53.034Z,0.47
2022-09-01T13:26:24.084Z,0.45
2022-09-01T13:28:53.063Z,6.78
2022-09-01T13:31:28.981Z,0.55
2022-09-01T13:34:21.732Z,0.32
2022-09-01T13:36:49.604Z,0.30
2022-09-01T13:39:20.798Z,0.40
2022-09-01T13:41:50.488Z,1.33
2022-09-01T13:44:19.473Z,0.73
2022-09-01T13:52:24.226Z,0.60
2022-09-01T13:54:52.245Z,1.00
2022-09-01T13:57:21.581Z,0.80
2022-09-01T13:59:49.589Z,0.80
2022-09-01T14:02:17.701Z,1.15
2022-09-01T14:04:47.158Z,0.82
2022-09-01T14:07:16.101Z,0.85
2022-09-01T14:09:44.168Z,2.47
2022-09-01T14:12:12.480Z,0.60
2022-09-01T14:17:29.865Z,0.40
2022-09-01T14:19:58.392Z,0.50
2022-09-01T14:22:26.424Z,0.50
2022-09-01T14:24:54.700Z,0.40
2022-09-01T14:27:22.713Z,2.50
2022-09-01T14:29:55.069Z,0.32
2022-09-01T14:32:26.963Z,0.50
2022-09-01T14:34:55.340Z,0.45
2022-09-01T14:37:24.539Z,0.68
2022-09-01T14:39:52.913Z,0.80
2022-09-01T14:42:21.480Z,1.65
2022-09-01T14:44:51.148Z,0.47
2022-09-01T14:47:22.184Z,3.70
2022-09-01T14:49:50.204Z,1.02
2022-09-01T14:52:18.608Z,1.85
2022-09-01T14:54:46.665Z,0.43
2022-09-01T14:57:36.592Z,2.13
2022-09-01T15:00:10.123Z,1.17
2022-09-01T15:02:38.311Z,0.73
2022-09-01T15:05:07.295Z,3.30
2022-09-01T15:07:35.505Z,1.40
2022-09-01T15:10:03.751Z,0.70
2022-09-01T15:12:31.960Z,0.60
2022-09-01T15:15:00.575Z,0.80
2022-09-01T15:17:30.515Z,0.70
2022-09-01T15:20:19.289Z,1.08
2022-09-01T15:22:47.512Z,1.15
2022-09-01T15:25:15.620Z,1.40
2022-09-01T15:27:44.034Z,3.03
2022-09-01T15:30:17.085Z,1.15
2022-09-01T15:32:48.367Z,1.50
2022-09-01T15:35:17.675Z,0.73
2022-09-01T15:37:47.735Z,3.45
2022-09-01T15:40:16.633Z,0.82
2022-09-01T15:42:44.737Z,1.38
2022-09-01T15:45:16.041Z,2.05
2022-09-01T15:47:45.780Z,2.30
2022-09-01T15:50:21.861Z,3.75
2022-09-01T15:52:52.901Z,1.88
2022-09-01T15:55:23.023Z,2.30
2022-09-01T15:57:51.671Z,1.75
2022-09-01T16:00:20.270Z,2.05
2022-09-01T16:02:48.275Z,3.42
2022-09-01T16:05:18.579Z,3.25
2022-09-01T16:07:46.945Z,1.13
2022-09-01T16:10:15.151Z,3.25
2022-09-01T16:12:48.333Z,2.08
2022-09-01T16:15:19.040Z,1.80
2022-09-01T16:17:59.563Z,2.20
2022-09-01T16:20:37.522Z,2.67
2022-09-01T16:23:17.137Z,4.65
2022-09-01T16:25:45.930Z,2.25
2022-09-01T16:28:28.806Z,2.35
2022-09-01T16:31:03.832Z,2.67
2022-09-01T16:33:33.940Z,1.30
2022-09-01T16:36:17.770Z,2.08
2022-09-01T16:38:49.634Z,5.30
2022-09-01T16:41:43.100Z,4.75
2022-09-01T16:44:23.646Z,1.85
2022-09-01T16:47:01.065Z,4.10
2022-09-01T16:49:35.746Z,3.38
2022-09-01T16:52:11.002Z,2.08
2022-09-01T16:54:50.522Z,4.70
2022-09-01T16:57:29.283Z,7.25
2022-09-01T17:00:01.514Z,4.05
2022-09-01T17:02:42.196Z,5.40
2022-09-01T17:05:20.494Z,3.88
2022-09-01T17:07:55.546Z,2.57
2022-09-01T17:10:34.485Z,3.35
2022-09-01T17:13:17.232Z,2.80
2022-09-01T17:15:51.738Z,23.08
2022-09-01T17:18:29.675Z,5.80
2022-09-01T17:21:03.386Z,4.32
2022-09-01T17:23:42.190Z,7.13
2022-09-01T17:26:22.413Z,5.70
2022-09-01T17:28:55.339Z,5.33
2022-09-01T17:31:42.812Z,5.57
2022-09-01T17:34:26.222Z,6.10
2022-09-01T17:37:05.518Z,8.47
2022-09-01T17:39:45.433Z,5.63
2022-09-01T17:42:25.026Z,9.20
2022-09-01T17:44:56.705Z,11.43
2022-09-01T17:47:33.961Z,11.63
2022-09-01T17:50:11.213Z,19.40
2022-09-01T17:52:52.594Z,16.93
2022-09-01T17:55:42.417Z,19.63
2022-09-01T17:58:18.526Z,21.67
2022-09-01T18:00:53.350Z,14.23
2022-09-01T18:03:54.721Z,12.00
2022-09-01T18:06:30.659Z,25.10
2022-09-01T18:08:59.325Z,57.83
2022-09-01T18:11:38.777Z,64.87
2022-09-01T18:14:13.249Z,17.80
2022-09-01T18:16:52.846Z,10.00
2022-09-01T18:19:23.740Z,6.33
2022-09-01T18:21:56.368Z,5.80
2022-09-01T18:24:33.042Z,12.17
2022-09-01T18:27:02.741Z,17.77
2022-09-01T18:29:32.320Z,19.77
2022-09-01T18:32:19.552Z,17.73
2022-09-01T18:35:08.055Z,19.83
2022-09-01T18:37:47.133Z,11.50
2022-09-01T18:40:22.459Z,10.50
2022-09-01T18:43:01.612Z,11.63
2022-09-01T18:45:38.490Z,12.60
2022-09-01T18:48:14.871Z,24.57
2022-09-01T18:50:53.972Z,27.43
2022-09-01T18:53:34.556Z,47.13
2022-09-01T18:56:09.532Z,16.03
2022-09-01T18:59:00.347Z,22.43
2022-09-01T19:01:33.942Z,27.83
2022-09-01T19:04:11.408Z,92.27
2022-09-01T19:06:53.149Z,46.97
2022-09-01T19:09:28.472Z,14.37
2022-09-01T19:12:10.487Z,11.80
2022-09-01T19:14:51.295Z,17.50
2022-09-01T19:17:34.975Z,7.17
2022-09-01T19:20:08.051Z,39.33
2022-09-01T19:22:43.188Z,28.40
2022-09-01T19:25:31.879Z,34.53
2022-09-01T19:28:04.035Z,14.60
2022-09-01T19:30:35.677Z,12.07
2022-09-01T19:33:06.588Z,12.73
2022-09-01T19:35:36.586Z,21.47
2022-09-01T19:38:07.487Z,14.23
2022-09-01T19:40:38.800Z,32.83
2022-09-01T19:43:11.402Z,16.13
2022-09-01T19:45:48.836Z,23.87
2022-09-01T19:48:21.811Z,55.90
2022-09-01T19:50:54.260Z,17.93
2022-09-01T19:53:36.435Z,15.13
2022-09-01T19:56:10.264Z,28.90
2022-09-01T19:58:51.647Z,21.87
2022-09-01T20:01:30.260Z,82.33
2022-09-01T20:04:04.702Z,30.40
2022-09-01T20:06:35.986Z,18.40
2022-09-01T20:09:11.514Z,15.27
2022-09-01T20:11:48.330Z,14.67
2022-09-01T20:14:32.543Z,18.50
2022-09-01T20:17:05.282Z,8.77
2022-09-01T20:19:40.442Z,10.80
2022-09-01T20:22:20.113Z,10.43
2022-09-01T20:24:58.444Z,9.77
2022-09-01T20:27:34.003Z,11.93
2022-09-01T20:30:05.318Z,5.87
2022-09-01T20:32:42.263Z,10.63
2022-09-01T20:35:14.942Z,5.47
2022-09-01T20:37:47.233Z,6.77
2022-09-01T20:40:20.077Z,12.03
2022-09-01T20:42:56.001Z,8.00
2022-09-01T20:45:25.938Z,5.70
2022-09-01T20:47:58.229Z,24.10
2022-09-01T20:50:31.186Z,12.07
2022-09-01T20:53:10.933Z,48.83
2022-09-01T20:55:45.077Z,72.73
2022-09-01T20:58:20.586Z,32.00
2022-09-01T21:00:55.146Z,8.30
2022-09-01T21:03:36.481Z,6.47
2022-09-01T21:06:11.440Z,5.27
2022-09-01T21:08:48.871Z,4.17
2022-09-01T21:11:32.517Z,3.23
2022-09-01T21:14:21.419Z,4.47
2022-09-01T21:16:59.041Z,4.50
2022-09-01T21:19:40.214Z,3.33
2022-09-01T21:22:11.241Z,4.17
2022-09-01T21:24:41.935Z,2.33
2022-09-01T21:27:18.824Z,2.50
2022-09-01T21:29:54.750Z,4.23
2022-09-01T21:32:23.681Z,11.70
2022-09-01T21:34:54.068Z,4.80
2022-09-01T21:37:23.745Z,3.37
2022-09-01T21:39:53.090Z,3.43
2022-09-01T21:42:23.137Z,6.33
2022-09-01T21:44:52.008Z,5.03
2022-09-01T21:47:22.636Z,2.23
2022-09-01T21:49:52.204Z,2.50
2022-09-01T21:52:20.236Z,2.30
2022-09-01T21:54:48.507Z,3.43
2022-09-01T21:57:16.794Z,5.77
2022-09-01T21:59:45.048Z,6.50
2022-09-01T22:02:13.380Z,3.67
2022-09-01T22:04:41.528Z,5.27
2022-09-01T22:07:18.735Z,7.37
2022-09-01T22:09:47.690Z,33.43
2022-09-01T22:12:16.099Z,24.10
2022-09-01T22:14:44.152Z,8.23
2022-09-01T22:17:12.680Z,4.50
2022-09-01T22:19:40.883Z,3.73
2022-09-01T22:22:10.305Z,3.27
2022-09-01T22:24:38.312Z,3.30
2022-09-01T22:27:06.421Z,3.30
2022-09-01T22:29:34.464Z,4.40
2022-09-01T22:32:02.607Z,3.67
2022-09-01T22:34:33.156Z,2.40
2022-09-01T22:37:01.739Z,3.00
2022-09-01T22:39:31.267Z,5.03
2022-09-01T22:41:59.931Z,6.23
2022-09-01T22:44:27.960Z,4.87
2022-09-01T22:46:55.928Z,5.57
2022-09-01T22:49:23.978Z,4.03
2022-09-01T22:51:52.123Z,5.10
2022-09-01T22:54:20.128Z,4.10
2022-09-01T22:56:50.071Z,4.97
2022-09-01T22:59:18.207Z,5.13
2022-09-01T23:01:47.931Z,2.60
2022-09-01T23:04:17.499Z,2.97
2022-09-01T23:06:49.529Z,12.10
2022-09-01T23:09:18.440Z,10.77
2022-09-01T23:11:46.748Z,21.07
2022-09-01T23:14:16.480Z,115.97
2022-09-01T23:16:44.660Z,39.30
2022-09-01T23:19:13.143Z,27.40
2022-09-01T23:21:41.131Z,25.70
2022-09-01T23:24:09.778Z,20.40
2022-09-01T23:26:37.944Z,11.43
2022-09-01T23:29:07.029Z,9.07
2022-09-01T23:31:40.044Z,5.53
2022-09-01T23:34:09.119Z,6.67
2022-09-01T23:36:38.135Z,8.73
2022-09-01T23:39:06.530Z,6.77
2022-09-01T23:41:36.956Z,3.90
2022-09-01T23:44:09.387Z,7.23
2022-09-01T23:46:42.508Z,45.97
2022-09-01T23:49:12.988Z,20.50
2022-09-01T23:51:41.785Z,24.50
2022-09-01T23:54:09.960Z,27.33
2022-09-01T23:56:38.997Z,9.20
2022-09-01T23:59:07.976Z,2.17
